createdAt,value
2023-11-24T00:02:20.217Z,9.78
2023-11-24T00:07:23.380Z,9.72
2023-11-24T00:12:26.728Z,9.68
2023-11-24T00:17:31.251Z,9.50
2023-11-24T00:22:34.435Z,9.33
2023-11-24T00:27:38.529Z,9.18
2023-11-24T00:32:44.942Z,9.11
2023-11-24T00:37:48.289Z,9.07
2023-11-24T00:42:51.557Z,8.99
2023-11-24T00:47:56.131Z,8.95
2023-11-24T00:52:59.560Z,8.90
2023-11-24T00:58:02.703Z,8.83
2023-11-24T01:03:07.749Z,8.83
2023-11-24T01:08:13.093Z,8.80
2023-11-24T01:13:22.197Z,8.77
2023-11-24T01:18:29.070Z,8.71
2023-11-24T01:23:32.652Z,8.70
2023-11-24T01:28:36.686Z,8.68
2023-11-24T01:33:44.652Z,8.62
2023-11-24T01:38:50.751Z,8.58
2023-11-24T01:43:59.987Z,8.48
2023-11-24T01:49:06.050Z,8.43
2023-11-24T01:54:09.662Z,8.30
2023-11-24T01:59:16.933Z,8.12
2023-11-24T02:04:22.323Z,8.02
2023-11-24T02:09:28.504Z,7.91
2023-11-24T02:14:31.786Z,7.85
2023-11-24T02:19:58.369Z,7.83
2023-11-24T02:25:23.333Z,7.89
2023-11-24T02:30:42.698Z,7.96
2023-11-24T02:35:45.965Z,7.98
2023-11-24T02:40:51.871Z,8.02
2023-11-24T02:46:14.650Z,8.01
2023-11-24T02:51:21.140Z,8.03
2023-11-24T02:56:25.750Z,7.94
2023-11-24T03:01:28.979Z,7.88
2023-11-24T03:06:32.307Z,7.85
2023-11-24T03:11:37.285Z,7.82
2023-11-24T03:16:41.573Z,7.80
2023-11-24T03:21:44.932Z,7.81
2023-11-24T03:26:49.544Z,7.74
2023-11-24T03:31:52.772Z,7.67
2023-11-24T03:36:55.914Z,7.54
2023-11-24T03:42:00.498Z,7.44
2023-11-24T03:47:03.659Z,7.36
2023-11-24T03:52:07.684Z,7.28
2023-11-24T03:57:12.697Z,7.19
2023-11-24T04:02:16.093Z,7.18
2023-11-24T04:07:19.480Z,7.31
2023-11-24T04:12:24.410Z,7.37
2023-11-24T04:17:27.582Z,7.46
2023-11-24T04:22:30.993Z,7.50
2023-11-24T04:27:35.860Z,7.56
2023-11-24T04:32:39.321Z,7.57
2023-11-24T04:37:42.777Z,7.50
2023-11-24T04:42:47.434Z,7.50
2023-11-24T04:47:50.878Z,7.54
2023-11-24T04:52:54.248Z,7.60
2023-11-24T04:57:59.082Z,7.64
2023-11-24T05:03:02.564Z,7.68
2023-11-24T05:08:06.233Z,7.62
2023-11-24T05:13:11.277Z,7.66
2023-11-24T05:18:14.606Z,7.70
2023-11-24T05:23:17.995Z,7.71
2023-11-24T05:28:22.888Z,7.72
2023-11-24T05:33:26.172Z,7.67
2023-11-24T05:38:29.451Z,7.59
2023-11-24T05:43:35.316Z,7.60
2023-11-24T05:48:39.006Z,7.62
2023-11-24T05:53:42.853Z,7.65
2023-11-24T05:58:47.888Z,7.65
2023-11-24T06:03:52.731Z,7.74
2023-11-24T06:08:56.431Z,7.74
2023-11-24T06:14:03.943Z,7.65
2023-11-24T06:19:07.628Z,7.61
2023-11-24T06:24:28.865Z,7.64
2023-11-24T06:29:42.407Z,7.53
2023-11-24T06:34:46.173Z,7.48
2023-11-24T06:39:52.186Z,7.49
2023-11-24T06:44:59.593Z,7.47
2023-11-24T06:50:05.868Z,7.42
2023-11-24T06:55:17.561Z,7.34
2023-11-24T07:00:23.931Z,7.37
2023-11-24T07:05:31.537Z,7.28
2023-11-24T07:10:35.043Z,7.16
2023-11-24T07:15:42.275Z,7.04
2023-11-24T07:20:50.582Z,6.95
2023-11-24T07:25:55.617Z,6.92
2023-11-24T07:31:05.478Z,7.02
2023-11-24T07:36:20.952Z,7.19
2023-11-24T07:46:55.917Z,7.37
2023-11-24T07:51:59.245Z,7.42
2023-11-24T07:57:02.620Z,7.47
2023-11-24T08:02:11.399Z,7.44
2023-11-24T08:07:14.875Z,7.43
2023-11-24T08:12:20.338Z,7.42
2023-11-24T08:17:25.193Z,7.47
2023-11-24T08:22:29.731Z,7.54
2023-11-24T08:27:33.052Z,7.75
2023-11-24T08:32:37.974Z,7.84
2023-11-24T08:37:41.682Z,7.88
2023-11-24T08:42:46.101Z,7.89
2023-11-24T08:47:50.955Z,7.89
2023-11-24T08:52:54.158Z,7.93
2023-11-24T08:58:00.810Z,7.97
2023-11-24T09:03:09.036Z,8.12
2023-11-24T09:08:12.404Z,8.26
2023-11-24T09:13:17.531Z,8.50
2023-11-24T09:18:25.417Z,8.51
2023-11-24T09:23:28.688Z,8.52
2023-11-24T09:28:35.745Z,8.73
2023-11-24T09:33:43.189Z,8.82
2023-11-24T09:38:47.876Z,8.74
2023-11-24T09:43:51.752Z,8.60
2023-11-24T09:48:57.099Z,8.52
2023-11-24T09:54:04.334Z,8.47
2023-11-24T09:59:10.273Z,8.62
2023-11-24T10:04:15.873Z,8.68
2023-11-24T10:09:26.332Z,8.69
2023-11-24T10:14:29.733Z,8.76
2023-11-24T10:19:34.540Z,8.73
2023-11-24T10:24:39.284Z,8.70
2023-11-24T10:29:42.673Z,8.69
2023-11-24T10:34:48.810Z,8.67
2023-11-24T10:39:55.899Z,8.63
2023-11-24T10:45:05.475Z,8.48
2023-11-24T10:50:13.958Z,8.51
2023-11-24T10:55:18.682Z,8.70
2023-11-24T11:00:24.848Z,8.78
2023-11-24T11:05:43.950Z,8.80
2023-11-24T11:11:07.581Z,8.75
2023-11-24T11:16:15.197Z,8.74
2023-11-24T11:21:38.647Z,8.76
2023-11-24T11:26:50.216Z,8.81
2023-11-24T11:31:54.086Z,8.75
2023-11-24T11:37:13.933Z,8.62
2023-11-24T11:42:17.755Z,8.40
2023-11-24T11:47:24.013Z,8.22
2023-11-24T11:52:32.626Z,8.14
2023-11-24T11:57:37.370Z,7.97
2023-11-24T12:02:41.168Z,7.93
2023-11-24T12:07:49.645Z,7.86
2023-11-24T12:12:53.898Z,7.72
2023-11-24T12:17:58.426Z,7.74
2023-11-24T12:23:05.386Z,7.78
2023-11-24T12:28:11.059Z,7.77
2023-11-24T12:33:20.930Z,7.58
2023-11-24T12:38:26.104Z,7.55
2023-11-24T12:43:34.767Z,7.53
2023-11-24T12:48:41.456Z,7.50
2023-11-24T12:53:48.135Z,7.57
2023-11-24T12:58:52.207Z,7.55
2023-11-24T13:03:55.564Z,7.54
2023-11-24T13:09:01.161Z,7.54
2023-11-24T13:14:04.817Z,7.43
2023-11-24T13:19:09.253Z,7.45
2023-11-24T13:24:14.889Z,7.55
2023-11-24T13:29:18.321Z,7.49
2023-11-24T13:34:22.206Z,7.29
2023-11-24T13:39:30.400Z,7.16
2023-11-24T13:44:35.951Z,7.05
2023-11-24T13:49:40.654Z,6.91
2023-11-24T13:54:45.249Z,6.86
2023-11-24T13:59:48.950Z,6.85
2023-11-24T14:04:52.366Z,6.95
2023-11-24T14:09:57.805Z,7.02
2023-11-24T14:15:02.174Z,7.10
2023-11-24T14:20:08.333Z,7.15
2023-11-24T14:25:15.290Z,7.17
2023-11-24T14:30:19.744Z,7.22
2023-11-24T14:35:23.025Z,7.21
2023-11-24T14:40:30.056Z,7.24
2023-11-24T14:45:34.591Z,7.28
2023-11-24T14:50:38.023Z,7.21
2023-11-24T14:55:42.761Z,6.64
2023-11-24T15:00:46.248Z,6.27
2023-11-24T15:05:56.118Z,5.96
2023-11-24T15:11:05.915Z,5.64
2023-11-24T15:16:13.632Z,5.51
2023-11-24T15:21:29.404Z,5.39
2023-11-24T15:26:37.356Z,5.24
2023-11-24T15:31:44.996Z,5.13
2023-11-24T15:36:50.014Z,5.00
2023-11-24T15:41:55.085Z,4.91
2023-11-24T15:46:58.498Z,4.82
2023-11-24T15:52:03.657Z,4.82
2023-11-24T15:57:10.243Z,4.79
2023-11-24T16:02:16.660Z,4.77
2023-11-24T16:07:22.905Z,4.80
2023-11-24T16:12:33.625Z,4.78
2023-11-24T16:17:36.860Z,4.80
2023-11-24T16:22:40.255Z,4.86
2023-11-24T16:27:44.819Z,4.89
2023-11-24T16:32:49.301Z,4.93
2023-11-24T16:37:52.957Z,4.98
2023-11-24T16:42:58.186Z,5.01
2023-11-24T16:48:01.819Z,5.04
2023-11-24T16:53:06.120Z,5.10
2023-11-24T16:58:11.780Z,5.16
2023-11-24T17:03:15.342Z,5.13
2023-11-24T17:08:20.935Z,5.01
2023-11-24T17:13:26.417Z,4.92
2023-11-24T17:18:29.782Z,4.80
2023-11-24T17:23:34.250Z,4.79
2023-11-24T17:28:39.258Z,4.74
2023-11-24T17:33:42.665Z,4.72
2023-11-24T17:38:46.397Z,4.74
2023-11-24T17:43:51.457Z,4.71
2023-11-24T17:48:55.227Z,4.69
2023-11-24T17:53:59.202Z,4.52
2023-11-24T17:59:04.725Z,4.35
2023-11-24T18:04:08.551Z,4.40
2023-11-24T18:09:11.978Z,4.46
2023-11-24T18:14:18.890Z,4.51
2023-11-24T18:19:22.169Z,4.55
2023-11-24T18:24:26.496Z,4.59
2023-11-24T18:29:31.355Z,4.60
2023-11-24T18:34:34.668Z,4.62
2023-11-24T18:39:37.994Z,4.62
2023-11-24T18:44:42.813Z,4.68
2023-11-24T18:49:46.560Z,4.75
2023-11-24T18:54:50.129Z,4.87
2023-11-24T18:59:54.864Z,4.92
2023-11-24T19:04:58.602Z,4.99
2023-11-24T19:10:02.480Z,5.03
2023-11-24T19:20:41.292Z,5.11
2023-11-24T19:25:45.214Z,5.13
2023-11-24T19:30:53.121Z,5.20
2023-11-24T19:35:56.779Z,5.25
2023-11-24T19:41:00.029Z,5.18
2023-11-24T19:46:06.000Z,5.20
2023-11-24T19:51:10.096Z,5.21
2023-11-24T19:56:14.816Z,5.26
2023-11-24T20:01:29.207Z,5.32
2023-11-24T20:06:33.509Z,5.32
2023-11-24T20:11:37.452Z,5.31
2023-11-24T20:16:43.420Z,5.28
2023-11-24T20:21:47.128Z,5.29
2023-11-24T20:26:50.638Z,5.32
2023-11-24T20:31:55.716Z,5.39
2023-11-24T20:36:59.056Z,5.37
2023-11-24T20:42:02.316Z,5.37
2023-11-24T20:47:09.347Z,5.24
2023-11-24T20:52:12.749Z,5.21
2023-11-24T20:57:16.208Z,5.17
2023-11-24T21:02:21.709Z,5.09
2023-11-24T21:07:25.473Z,5.15
2023-11-24T21:12:29.509Z,5.12
2023-11-24T21:17:34.281Z,5.10
2023-11-24T21:22:38.040Z,5.08
2023-11-24T21:27:41.291Z,5.09
2023-11-24T21:32:46.681Z,5.06
2023-11-24T21:37:50.583Z,5.11
2023-11-24T21:42:55.264Z,5.11
2023-11-24T21:47:59.965Z,5.10
2023-11-24T21:53:03.398Z,5.09
2023-11-24T21:58:06.878Z,5.11
2023-11-24T22:03:11.714Z,5.13
2023-11-24T22:08:15.765Z,5.13
2023-11-24T22:13:19.043Z,5.10
2023-11-24T22:18:23.849Z,5.09
2023-11-24T22:23:29.981Z,5.05
2023-11-24T22:28:34.075Z,5.03
2023-11-24T22:33:38.896Z,5.04
2023-11-24T22:38:42.255Z,5.02
2023-11-24T22:43:45.551Z,4.92
2023-11-24T22:48:50.634Z,4.87
2023-11-24T22:53:54.436Z,4.80
2023-11-24T22:58:59.994Z,4.73
2023-11-24T23:04:06.425Z,4.66
2023-11-24T23:09:09.815Z,4.59
2023-11-24T23:14:13.091Z,4.50
2023-11-24T23:19:17.863Z,4.41
2023-11-24T23:24:21.199Z,4.31
2023-11-24T23:29:25.030Z,4.27
2023-11-24T23:34:29.712Z,4.26
2023-11-24T23:39:35.684Z,4.29
2023-11-24T23:44:38.988Z,4.37
2023-11-24T23:49:44.415Z,4.36
2023-11-24T23:54:47.739Z,4.36
2023-11-24T23:59:52.063Z,4.33
